Time;durP1;ratioP1;P1;durP2;ratioP2;P2;SDS_P1;SDS_P2;PMS_P1;PMS_P2;Temp;Humidity;BMP_temperature;BMP_pressure;BME280_temperature;BME280_humidity;BME280_pressure;Samples;Min_cycle;Max_cycle;Signal;HPM_P1;HPM_P2
2022/05/21 00:00:38;;;;;;;0.40;0.40;;;10.70;99.90;;;;;;5014040;28;20037;-84
2022/05/21 00:03:04;;;;;;;0.55;0.55;;;10.60;99.90;;;;;;5037907;28;20036;-84
2022/05/21 00:05:35;;;;;;;0.32;0.32;;;10.60;99.90;;;;;;5054356;28;20047;-84
2022/05/21 00:08:03;;;;;;;0.70;0.70;;;10.60;99.90;;;;;;5054254;28;20368;-84
2022/05/21 00:10:30;;;;;;;0.22;0.22;;;10.60;99.90;;;;;;5034165;28;20041;-84
2022/05/21 00:12:57;;;;;;;1.08;0.52;;;10.70;99.90;;;;;;5049411;28;20137;-86
2022/05/21 00:15:24;;;;;;;0.00;0.00;;;10.70;99.90;;;;;;5047959;28;20091;-86
2022/05/21 00:17:50;;;;;;;0.35;0.35;;;10.80;99.90;;;;;;5058226;28;20032;-86
2022/05/21 00:23:09;;;;;;;0.38;0.38;;;10.80;99.90;;;;;;5034511;28;20394;-86
2022/05/21 00:25:35;;;;;;;0.30;0.30;;;10.90;99.90;;;;;;5041270;28;20118;-87
2022/05/21 00:28:01;;;;;;;0.52;0.52;;;10.90;99.90;;;;;;5041678;28;20075;-86
2022/05/21 00:30:26;;;;;;;2.30;0.70;;;11.00;99.90;;;;;;5041477;28;20288;-88
2022/05/21 00:32:52;;;;;;;0.75;0.47;;;11.00;99.90;;;;;;5041663;28;20048;-88
2022/05/21 00:35:18;;;;;;;0.95;0.95;;;11.10;99.90;;;;;;5041438;28;20437;-88
2022/05/21 00:37:43;;;;;;;11.52;3.22;;;11.50;99.90;;;;;;5040063;28;20028;-88
2022/05/21 00:40:10;;;;;;;0.28;0.28;;;11.10;99.90;;;;;;5038076;28;20075;-88
2022/05/21 00:42:45;;;;;;;7.28;1.48;;;11.20;99.90;;;;;;5054414;28;20036;-88
2022/05/21 00:45:13;;;;;;;3.10;0.98;;;11.80;99.90;;;;;;5057671;28;20044;-88
2022/05/21 00:47:39;;;;;;;0.73;0.73;;;11.30;99.90;;;;;;5041830;28;20044;-93
2022/05/21 00:50:07;;;;;;;0.20;0.20;;;11.30;99.90;;;;;;5055184;28;20072;-94
2022/05/21 00:52:35;;;;;;;0.10;0.10;;;11.40;99.90;;;;;;5025785;28;20040;-94
2022/05/21 00:55:08;;;;;;;1.27;1.17;;;11.50;99.90;;;;;;5038441;28;20045;-93
2022/05/21 00:57:42;;;;;;;0.38;0.32;;;11.50;99.90;;;;;;5057178;28;20387;-95
2022/05/21 01:00:20;;;;;;;0.10;0.10;;;11.70;99.90;;;;;;5041466;28;20045;-93
2022/05/21 01:02:57;;;;;;;0.52;0.52;;;11.80;99.90;;;;;;5058990;28;20032;-93
2022/05/21 01:05:25;;;;;;;0.77;0.55;;;11.90;99.90;;;;;;5051415;28;20043;-94
2022/05/21 01:07:55;;;;;;;0.35;0.35;;;12.00;99.90;;;;;;5045643;28;20037;-94
2022/05/21 01:10:23;;;;;;;0.40;0.40;;;12.10;99.90;;;;;;5041646;28;20044;-94
2022/05/21 01:12:52;;;;;;;0.30;0.30;;;12.10;99.90;;;;;;5057844;28;20059;-94
2022/05/21 01:15:23;;;;;;;1.35;0.75;;;12.20;99.90;;;;;;5056404;28;20547;-93
2022/05/21 01:17:49;;;;;;;0.20;0.20;;;12.20;99.90;;;;;;5058090;28;20044;-93
2022/05/21 01:20:18;;;;;;;0.93;0.73;;;12.30;99.90;;;;;;5040373;28;20032;-88
2022/05/21 01:22:53;;;;;;;0.55;0.55;;;12.40;99.90;;;;;;5039532;28;20047;-88
2022/05/21 01:25:25;;;;;;;0.10;0.10;;;12.40;99.90;;;;;;5044119;28;20193;-88
2022/05/21 01:27:53;;;;;;;2.28;1.98;;;12.40;99.90;;;;;;5040705;28;20130;-88
2022/05/21 01:30:33;;;;;;;0.70;0.60;;;12.50;99.90;;;;;;5056572;28;20074;-88
2022/05/21 01:33:06;;;;;;;0.38;0.38;;;12.50;99.90;;;;;;5040856;28;20048;-87
2022/05/21 01:35:33;;;;;;;1.85;1.55;;;12.50;99.90;;;;;;5040074;28;20490;-92
2022/05/21 01:37:59;;;;;;;0.32;0.30;;;12.50;99.90;;;;;;5056874;28;20033;-92
2022/05/21 01:40:25;;;;;;;0.35;0.35;;;12.60;99.90;;;;;;5040529;28;20044;-92
2022/05/21 01:45:36;;;;;;;0.75;0.75;;;12.60;99.90;;;;;;5042825;28;20375;-93
2022/05/21 01:48:03;;;;;;;1.13;0.98;;;12.60;99.90;;;;;;5040497;28;20036;-92
2022/05/21 01:50:30;;;;;;;0.20;0.20;;;12.60;99.90;;;;;;5037163;28;20065;-93
2022/05/21 01:52:56;;;;;;;0.75;0.75;;;12.60;99.90;;;;;;5050355;28;20119;-84
2022/05/21 01:55:21;;;;;;;0.25;0.25;;;12.60;99.90;;;;;;5052049;28;20041;-84
2022/05/21 01:57:47;;;;;;;0.50;0.40;;;12.70;99.90;;;;;;5036638;28;20128;-84
2022/05/21 02:00:15;;;;;;;0.15;0.15;;;12.70;99.90;;;;;;5020539;28;20052;-84
2022/05/21 02:02:41;;;;;;;0.35;0.35;;;12.70;99.90;;;;;;5035640;28;20064;-84
2022/05/21 02:05:07;;;;;;;0.68;0.45;;;12.80;99.90;;;;;;5036499;28;20483;-84
2022/05/21 02:07:34;;;;;;;0.10;0.10;;;12.80;99.90;;;;;;5034855;28;20048;-84
2022/05/21 02:10:00;;;;;;;1.35;1.27;;;12.80;99.90;;;;;;5052668;28;20052;-84
2022/05/21 02:12:27;;;;;;;0.43;0.40;;;12.80;99.90;;;;;;5037736;28;20391;-84
2022/05/21 02:14:54;;;;;;;0.50;0.43;;;12.90;99.90;;;;;;5052839;28;20041;-84
2022/05/21 02:17:21;;;;;;;0.57;0.57;;;12.90;99.90;;;;;;5036254;28;20089;-84
2022/05/21 02:19:47;;;;;;;1.30;1.10;;;12.90;99.90;;;;;;5052959;28;20044;-85
2022/05/21 02:22:13;;;;;;;0.30;0.30;;;12.60;99.90;;;;;;5036456;28;20076;-84
2022/05/21 02:24:39;;;;;;;0.03;0.03;;;12.90;99.90;;;;;;5052969;28;20126;-84
2022/05/21 02:27:12;;;;;;;0.20;0.13;;;12.90;99.90;;;;;;5019343;28;20080;-86
2022/05/21 02:29:39;;;;;;;0.10;0.10;;;12.90;99.90;;;;;;5035955;28;20126;-87
2022/05/21 02:32:05;;;;;;;0.20;0.20;;;12.90;99.90;;;;;;5052339;28;20120;-86
2022/05/21 02:34:32;;;;;;;0.10;0.10;;;12.90;99.90;;;;;;5052064;28;20041;-87
2022/05/21 02:39:42;;;;;;;0.08;0.08;;;12.90;99.90;;;;;;5041417;28;20057;-86
2022/05/21 02:42:43;;;;;;;1.67;1.20;;;12.80;99.90;;;;;;5052620;28;20056;-93
2022/05/21 02:44:55;;;;;;;0.08;0.08;;;12.80;99.90;;;;;;5043398;28;20047;-94
2022/05/21 02:47:21;;;;;;;10.63;1.88;;;12.70;99.90;;;;;;5051521;28;20060;-93
2022/05/21 02:49:47;;;;;;;0.32;0.32;;;12.80;99.90;;;;;;5035916;28;20103;-93
2022/05/21 02:52:13;;;;;;;0.47;0.30;;;12.70;99.90;;;;;;5053102;28;20045;-94
2022/05/21 02:54:39;;;;;;;0.25;0.25;;;12.80;99.90;;;;;;5036516;28;20557;-94
2022/05/21 02:57:10;;;;;;;0.20;0.20;;;12.80;99.90;;;;;;5035657;28;20511;-94
2022/05/21 02:59:38;;;;;;;0.20;0.20;;;12.90;99.90;;;;;;5052383;28;20037;-86
2022/05/21 03:02:04;;;;;;;24.17;1.13;;;12.90;99.90;;;;;;5052085;28;20048;-87
2022/05/21 03:04:30;;;;;;;0.80;0.80;;;13.00;99.90;;;;;;5006718;28;20045;-86
2022/05/21 03:06:56;;;;;;;0.10;0.10;;;13.00;99.90;;;;;;5041443;28;20047;-86
2022/05/21 03:12:09;;;;;;;0.90;0.70;;;13.10;99.90;;;;;;5050151;28;20041;-86
2022/05/21 03:14:34;;;;;;;0.10;0.10;;;13.00;99.90;;;;;;5019044;28;20128;-86
2022/05/21 03:17:00;;;;;;;0.22;0.22;;;13.00;99.90;;;;;;5034530;28;20119;-86
2022/05/21 03:19:31;;;;;;;2.03;0.80;;;13.10;99.90;;;;;;5048967;28;20071;-86
2022/05/21 03:21:58;;;;;;;0.30;0.30;;;13.10;99.90;;;;;;5052033;28;20491;-87
2022/05/21 03:24:25;;;;;;;0.52;0.52;;;13.10;99.90;;;;;;5051641;28;20082;-86
2022/05/21 03:26:51;;;;;;;0.10;0.10;;;13.10;99.90;;;;;;5052326;28;20142;-87
2022/05/21 03:29:16;;;;;;;0.25;0.25;;;13.20;99.90;;;;;;5034970;28;20494;-87
2022/05/21 03:31:42;;;;;;;0.10;0.10;;;13.20;99.90;;;;;;5034915;28;20079;-86
2022/05/21 03:34:09;;;;;;;0.10;0.10;;;13.20;99.90;;;;;;5022104;28;20057;-94
2022/05/21 03:36:35;;;;;;;0.10;0.10;;;13.20;99.90;;;;;;5015897;28;20053;-94
2022/05/21 03:39:02;;;;;;;0.10;0.10;;;13.20;99.90;;;;;;5048879;28;20036;-95
2022/05/21 03:41:28;;;;;;;0.55;0.55;;;13.20;99.90;;;;;;5052986;28;20041;-95
2022/05/21 03:43:55;;;;;;;0.40;0.40;;;13.20;99.90;;;;;;5036067;28;20094;-94
2022/05/21 03:46:21;;;;;;;0.35;0.35;;;13.20;99.90;;;;;;5053372;28;20045;-95
2022/05/21 03:48:47;;;;;;;0.57;0.57;;;13.20;99.90;;;;;;5025882;28;20131;-87
2022/05/21 03:51:13;;;;;;;0.43;0.43;;;13.20;99.90;;;;;;5057777;28;20234;-86
2022/05/21 03:53:39;;;;;;;0.10;0.10;;;13.20;99.90;;;;;;5025634;28;20087;-85
2022/05/21 03:56:05;;;;;;;2.17;0.57;;;13.20;99.90;;;;;;5058668;28;20063;-86
2022/05/21 03:58:31;;;;;;;0.03;0.03;;;13.20;99.90;;;;;;5052161;28;20046;-86
2022/05/21 04:00:57;;;;;;;0.25;0.25;;;13.20;99.90;;;;;;5044773;28;20035;-86
2022/05/21 04:03:24;;;;;;;0.20;0.20;;;13.10;99.90;;;;;;5035727;28;20033;-86
2022/05/21 04:05:53;;;;;;;0.17;0.17;;;13.10;99.90;;;;;;5054997;28;20044;-88
2022/05/21 04:08:19;;;;;;;0.93;0.85;;;13.30;99.90;;;;;;5058602;28;20036;-88
2022/05/21 04:10:46;;;;;;;0.00;0.00;;;13.10;99.90;;;;;;5040055;28;20037;-88
2022/05/21 04:13:12;;;;;;;0.30;0.22;;;13.00;99.90;;;;;;5038379;28;20044;-88
2022/05/21 04:15:37;;;;;;;0.00;0.00;;;13.00;99.90;;;;;;5031658;28;20040;-88
2022/05/21 04:18:03;;;;;;;0.43;0.43;;;13.00;99.90;;;;;;5041544;28;20032;-88
2022/05/21 04:20:29;;;;;;;0.55;0.30;;;13.00;99.90;;;;;;5038433;28;20048;-88
2022/05/21 04:22:55;;;;;;;0.08;0.08;;;13.00;99.90;;;;;;5038518;28;20039;-94
2022/05/21 04:25:21;;;;;;;0.10;0.10;;;13.00;99.90;;;;;;5042463;28;20113;-94
2022/05/21 04:27:47;;;;;;;10.85;1.10;;;13.00;99.90;;;;;;5059017;28;20044;-95
2022/05/21 04:30:21;;;;;;;0.45;0.45;;;13.00;99.90;;;;;;5058016;28;20050;-95
2022/05/21 04:32:47;;;;;;;0.20;0.20;;;13.10;99.90;;;;;;5059157;28;20049;-95
2022/05/21 04:35:14;;;;;;;0.00;0.00;;;13.10;99.90;;;;;;5059149;28;20040;-94
2022/05/21 04:37:40;;;;;;;0.10;0.10;;;13.10;99.90;;;;;;5041993;28;20055;-94
2022/05/21 04:40:09;;;;;;;0.10;0.10;;;13.10;99.90;;;;;;5058579;28;20040;-88
2022/05/21 04:42:35;;;;;;;0.82;0.82;;;13.10;99.90;;;;;;5058201;28;20028;-88
2022/05/21 04:45:01;;;;;;;0.63;0.30;;;13.10;99.90;;;;;;5036230;28;20044;-88
2022/05/21 04:47:26;;;;;;;0.10;0.10;;;13.20;99.90;;;;;;5058068;28;20570;-88
2022/05/21 04:49:52;;;;;;;0.10;0.10;;;13.10;99.90;;;;;;5057921;28;20414;-88
2022/05/21 04:52:18;;;;;;;0.00;0.00;;;13.20;99.90;;;;;;5041084;28;20055;-88
2022/05/21 04:54:43;;;;;;;0.40;0.40;;;13.20;99.90;;;;;;5057471;28;20463;-88
2022/05/21 04:57:09;;;;;;;0.57;0.55;;;13.20;99.90;;;;;;5056969;28;20485;-88
2022/05/21 04:59:35;;;;;;;0.17;0.17;;;13.30;99.90;;;;;;5041320;28;20041;-88
2022/05/21 05:02:02;;;;;;;0.00;0.00;;;13.30;99.90;;;;;;5057715;28;20043;-88
2022/05/21 05:04:27;;;;;;;0.00;0.00;;;13.40;99.90;;;;;;5056701;28;20044;-88
2022/05/21 05:06:53;;;;;;;0.10;0.10;;;13.40;99.90;;;;;;5040871;28;20041;-88
2022/05/21 05:09:23;;;;;;;0.10;0.10;;;13.40;99.90;;;;;;5054315;28;20040;-88
2022/05/21 05:11:52;;;;;;;1.17;0.52;;;13.50;99.90;;;;;;5021260;28;20088;-88
2022/05/21 05:14:18;;;;;;;0.05;0.05;;;13.60;99.90;;;;;;5037876;28;20090;-94
2022/05/21 05:16:45;;;;;;;0.15;0.15;;;13.60;99.90;;;;;;5044669;28;20040;-94
2022/05/21 05:19:10;;;;;;;0.28;0.28;;;13.60;99.90;;;;;;5058183;28;20095;-93
2022/05/21 05:21:37;;;;;;;0.00;0.00;;;13.70;99.90;;;;;;5040992;28;20498;-94
2022/05/21 05:24:03;;;;;;;1.13;1.13;;;13.70;99.90;;;;;;5056213;28;20032;-95
2022/05/21 05:26:29;;;;;;;0.75;0.55;;;13.70;99.90;;;;;;5058042;28;20040;-94
2022/05/21 05:28:55;;;;;;;0.00;0.00;;;13.70;99.90;;;;;;5040904;28;20062;-86
2022/05/21 05:31:21;;;;;;;0.35;0.35;;;13.80;99.90;;;;;;5040676;28;20048;-86
2022/05/21 05:33:47;;;;;;;0.10;0.10;;;13.90;99.90;;;;;;5057242;28;20120;-86
2022/05/21 05:36:12;;;;;;;0.20;0.10;;;14.00;99.90;;;;;;5056880;28;20041;-85
2022/05/21 05:38:38;;;;;;;0.10;0.10;;;14.00;99.90;;;;;;5039806;28;20036;-86
2022/05/21 05:41:07;;;;;;;2.90;0.52;;;14.00;99.90;;;;;;5056638;28;20079;-86
2022/05/21 05:43:33;;;;;;;0.73;0.65;;;14.00;99.90;;;;;;5062982;28;20043;-86
2022/05/21 05:45:59;;;;;;;3.85;1.45;;;14.00;99.90;;;;;;5049190;28;20036;-88
2022/05/21 05:48:26;;;;;;;0.38;0.35;;;14.10;99.90;;;;;;5047517;28;20450;-88
2022/05/21 05:50:52;;;;;;;0.00;0.00;;;14.10;99.90;;;;;;5056413;28;20131;-89
2022/05/21 05:53:18;;;;;;;0.43;0.35;;;14.40;99.90;;;;;;5056626;28;20051;-88
2022/05/21 05:55:43;;;;;;;0.00;0.00;;;14.50;99.90;;;;;;5056265;28;20041;-88
2022/05/21 06:00:55;;;;;;;0.15;0.15;;;14.60;99.90;;;;;;5041780;28;20044;-88
2022/05/21 06:03:21;;;;;;;0.10;0.10;;;14.60;99.90;;;;;;5023723;28;20490;-84
2022/05/21 06:05:49;;;;;;;0.00;0.00;;;14.80;99.90;;;;;;5055134;28;20048;-84
2022/05/21 06:08:15;;;;;;;1.45;0.38;;;14.80;99.90;;;;;;5040141;28;20387;-84
2022/05/21 06:10:43;;;;;;;0.20;0.20;;;14.80;99.90;;;;;;5036842;28;20048;-84
2022/05/21 06:13:10;;;;;;;0.00;0.00;;;15.10;99.90;;;;;;5037279;28;20045;-84
2022/05/21 06:15:37;;;;;;;1.70;0.73;;;15.30;99.90;;;;;;5065779;28;20044;-84
2022/05/21 06:18:16;;;;;;;4.40;0.90;;;15.40;99.90;;;;;;5055736;28;20074;-84
2022/05/21 06:20:43;;;;;;;0.28;0.28;;;15.30;99.90;;;;;;5052540;28;20111;-86
2022/05/21 06:23:09;;;;;;;0.00;0.00;;;15.30;99.90;;;;;;5038356;28;20475;-86
2022/05/21 06:25:35;;;;;;;0.00;0.00;;;15.60;99.90;;;;;;5051990;28;20043;-85
2022/05/21 06:28:03;;;;;;;0.20;0.20;;;15.80;99.90;;;;;;5055801;28;20060;-86
2022/05/21 06:30:31;;;;;;;0.15;0.15;;;15.80;99.90;;;;;;5036034;28;20064;-86
2022/05/21 06:32:59;;;;;;;0.38;0.38;;;16.30;99.90;;;;;;5038581;28;20465;-86
2022/05/21 06:35:27;;;;;;;0.73;0.73;;;16.80;99.90;;;;;;5055552;28;20490;-86
2022/05/21 06:37:53;;;;;;;0.00;0.00;;;17.10;99.90;;;;;;5071462;28;20160;-86
2022/05/21 06:40:19;;;;;;;0.30;0.30;;;17.00;99.90;;;;;;5037472;28;20124;-86
2022/05/21 06:42:46;;;;;;;2.60;1.40;;;16.90;99.90;;;;;;5055838;28;20044;-86
2022/05/21 06:45:12;;;;;;;0.47;0.30;;;16.80;99.90;;;;;;5055451;28;20048;-86
2022/05/21 06:47:38;;;;;;;0.00;0.00;;;17.00;99.90;;;;;;5051834;28;20050;-86
2022/05/21 06:50:05;;;;;;;0.73;0.55;;;17.10;99.90;;;;;;5033174;28;20534;-85
2022/05/21 06:52:32;;;;;;;0.17;0.10;;;17.10;99.90;;;;;;5015796;28;20049;-85
2022/05/21 06:54:58;;;;;;;0.05;0.05;;;17.00;99.90;;;;;;5043964;28;20114;-85
2022/05/21 06:57:28;;;;;;;0.98;0.98;;;16.60;99.90;;;;;;5028746;28;20036;-85
2022/05/21 06:59:54;;;;;;;0.10;0.10;;;16.40;99.90;;;;;;5051972;28;20064;-84
2022/05/21 07:02:20;;;;;;;13.25;0.55;;;16.70;99.90;;;;;;5035293;28;20127;-85
2022/05/21 07:07:32;;;;;;;0.98;0.75;;;17.60;99.90;;;;;;5037572;28;20053;-85
2022/05/21 07:10:00;;;;;;;0.80;0.80;;;17.70;99.90;;;;;;5049280;28;20045;-84
2022/05/21 07:12:26;;;;;;;0.47;0.43;;;17.30;99.90;;;;;;5048479;28;20041;-83
2022/05/21 07:14:52;;;;;;;0.45;0.45;;;16.90;99.90;;;;;;5018243;28;20120;-83
2022/05/21 07:17:18;;;;;;;0.10;0.10;;;17.20;99.90;;;;;;5022726;28;20124;-84
2022/05/21 07:19:44;;;;;;;0.10;0.10;;;17.40;99.90;;;;;;5026964;28;20403;-84
2022/05/21 07:22:10;;;;;;;0.38;0.38;;;17.30;99.90;;;;;;5067427;28;20040;-84
2022/05/21 07:24:40;;;;;;;1.00;0.93;;;17.30;99.90;;;;;;5051875;28;20072;-84
2022/05/21 07:27:06;;;;;;;8.93;0.52;;;17.20;99.90;;;;;;5051991;28;20114;-84
2022/05/21 07:29:32;;;;;;;0.65;0.57;;;17.30;99.90;;;;;;5042330;28;20068;-84
2022/05/21 07:31:57;;;;;;;0.00;0.00;;;17.10;99.90;;;;;;5032387;28;20048;-84
2022/05/21 07:34:23;;;;;;;0.88;0.80;;;17.30;99.90;;;;;;5050945;28;20154;-84
2022/05/21 07:36:49;;;;;;;0.93;0.55;;;17.70;99.90;;;;;;5048075;28;20044;-84
2022/05/21 07:39:15;;;;;;;0.90;0.25;;;17.40;99.90;;;;;;5014023;28;20103;-85
2022/05/21 07:41:41;;;;;;;0.32;0.32;;;17.60;99.90;;;;;;5033031;28;20037;-84
2022/05/21 07:44:07;;;;;;;0.63;0.57;;;17.90;99.90;;;;;;5015921;28;20118;-84
2022/05/21 07:46:33;;;;;;;0.75;0.75;;;17.70;99.90;;;;;;5032765;28;20068;-83
2022/05/21 07:48:59;;;;;;;1.55;1.35;;;17.30;99.90;;;;;;5050143;28;20455;-84
2022/05/21 07:51:24;;;;;;;0.10;0.10;;;17.40;99.90;;;;;;5029120;28;20380;-83
2022/05/21 07:53:50;;;;;;;0.03;0.03;;;17.40;99.90;;;;;;5045639;28;20483;-84
2022/05/21 07:56:16;;;;;;;0.68;0.25;;;17.60;99.90;;;;;;5031971;28;20107;-84
2022/05/21 07:58:43;;;;;;;1.05;0.60;;;18.80;99.90;;;;;;5032729;28;20041;-84
2022/05/21 08:01:11;;;;;;;0.10;0.10;;;19.40;99.90;;;;;;5061119;28;20044;-85
2022/05/21 08:03:38;;;;;;;0.10;0.10;;;20.10;99.90;;;;;;5050982;28;20501;-85
2022/05/21 08:06:04;;;;;;;0.15;0.13;;;19.80;99.90;;;;;;5017626;28;20041;-85
2022/05/21 08:08:29;;;;;;;0.80;0.20;;;20.20;99.90;;;;;;5050784;28;20079;-85
2022/05/21 08:10:56;;;;;;;0.25;0.25;;;20.80;99.90;;;;;;5031335;28;20056;-85
2022/05/21 08:13:21;;;;;;;0.03;0.03;;;21.20;99.90;;;;;;5030362;28;20037;-85
2022/05/21 08:15:47;;;;;;;0.22;0.22;;;21.20;99.50;;;;;;5028352;28;20040;-89
2022/05/21 08:18:13;;;;;;;0.30;0.25;;;20.60;99.90;;;;;;5046461;28;20094;-89
2022/05/21 08:20:40;;;;;;;0.10;0.10;;;20.20;99.90;;;;;;5027852;28;20033;-89
2022/05/21 08:28:35;;;;;;;0.10;0.10;;;19.80;99.90;;;;;;5044049;28;20211;-88
2022/05/21 08:31:03;;;;;;;0.10;0.10;;;19.90;99.90;;;;;;5029545;28;20040;-88
2022/05/21 08:33:29;;;;;;;1.25;0.45;;;19.80;99.90;;;;;;5034556;28;20410;-84
2022/05/21 08:35:54;;;;;;;0.00;0.00;;;20.20;99.90;;;;;;5048163;28;20037;-86
2022/05/21 08:38:20;;;;;;;1.98;0.10;;;20.50;99.90;;;;;;5049142;28;20040;-83
2022/05/21 08:41:02;;;;;;;0.10;0.10;;;20.90;99.90;;;;;;5034066;28;20103;-87
2022/05/21 08:43:39;;;;;;;0.20;0.20;;;21.00;99.90;;;;;;5061345;28;20068;-84
2022/05/21 08:46:26;;;;;;;5.30;1.25;;;20.70;99.20;;;;;;5053439;28;20048;-84
2022/05/21 08:49:01;;;;;;;0.10;0.10;;;20.70;99.90;;;;;;5055886;28;20110;-84
2022/05/21 08:51:56;;;;;;;0.05;0.05;;;20.90;99.90;;;;;;5057608;28;20075;-84
2022/05/21 08:54:25;;;;;;;0.08;0.08;;;20.20;99.90;;;;;;5025945;28;20636;-83
2022/05/21 08:56:53;;;;;;;0.88;0.47;;;19.90;99.90;;;;;;5054566;28;20490;-84
2022/05/21 08:59:24;;;;;;;0.35;0.35;;;20.30;99.90;;;;;;5055195;28;20041;-84
2022/05/21 09:01:51;;;;;;;0.90;0.85;;;20.80;99.90;;;;;;5037415;28;20083;-84
2022/05/21 09:04:16;;;;;;;0.10;0.10;;;21.10;98.90;;;;;;5058290;22;20087;-83
2022/05/21 09:06:55;;;;;;;0.15;0.15;;;21.40;99.10;;;;;;5013587;28;20057;-85
2022/05/21 09:09:52;;;;;;;0.65;0.60;;;20.50;99.90;;;;;;5014244;28;20120;-85
2022/05/21 09:12:49;;;;;;;0.00;0.00;;;20.60;99.90;;;;;;4995837;28;20049;-84
2022/05/21 09:18:08;;;;;;;0.08;0.08;;;20.30;99.90;;;;;;5006130;28;20049;-85
2022/05/21 09:20:41;;;;;;;0.00;0.00;;;20.40;99.50;;;;;;5009642;28;20159;-85
2022/05/21 09:23:08;;;;;;;0.10;0.10;;;19.70;99.90;;;;;;4995595;28;20046;-82
2022/05/21 09:25:33;;;;;;;0.10;0.10;;;19.60;99.90;;;;;;5014185;28;20042;-83
2022/05/21 09:28:08;;;;;;;0.15;0.13;;;19.90;99.90;;;;;;5017181;28;20476;-83
2022/05/21 09:30:38;;;;;;;0.10;0.10;;;20.70;99.30;;;;;;4996556;28;20080;-83
2022/05/21 09:33:32;;;;;;;0.70;0.55;;;20.40;99.40;;;;;;5010503;28;20049;-83
2022/05/21 09:35:59;;;;;;;0.47;0.25;;;20.50;99.90;;;;;;5022481;28;20041;-82
2022/05/21 09:38:33;;;;;;;0.77;0.68;;;21.30;99.90;;;;;;5010287;28;20044;-82
2022/05/21 09:41:20;;;;;;;0.22;0.22;;;21.60;97.70;;;;;;4997046;28;20033;-90
2022/05/21 09:47:22;;;;;;;1.38;0.40;;;20.40;99.90;;;;;;5014790;28;20129;-89
2022/05/21 09:50:09;;;;;;;0.00;0.00;;;20.00;99.50;;;;;;4998722;28;20048;-89
2022/05/21 09:52:36;;;;;;;0.55;0.45;;;19.40;99.90;;;;;;4998300;28;20125;-87
2022/05/21 09:55:21;;;;;;;0.10;0.10;;;19.70;99.90;;;;;;5014830;28;20071;-89
2022/05/21 09:57:47;;;;;;;0.63;0.63;;;20.70;99.70;;;;;;5010970;28;20554;-87
2022/05/21 10:00:32;;;;;;;2.53;0.98;;;21.00;99.40;;;;;;5014761;28;20146;-87
2022/05/21 10:03:01;;;;;;;2.33;1.33;;;21.90;96.90;;;;;;5017826;28;20033;-87
2022/05/21 10:05:38;;;;;;;2.65;0.47;;;21.60;96.80;;;;;;5017424;28;20052;-87
2022/05/21 10:11:20;;;;;;;0.30;0.30;;;20.50;99.90;;;;;;5008278;28;20065;-88
2022/05/21 10:14:11;;;;;;;0.63;0.63;;;20.70;99.40;;;;;;5011432;28;20078;-84
2022/05/21 10:16:43;;;;;;;0.00;0.00;;;20.70;98.80;;;;;;5008630;28;20033;-84
2022/05/21 10:19:12;;;;;;;0.38;0.38;;;20.50;98.30;;;;;;5006169;28;20046;-85
2022/05/21 10:22:01;;;;;;;0.03;0.03;;;20.20;98.20;;;;;;5007232;28;20069;-86
2022/05/21 10:24:49;;;;;;;0.25;0.25;;;19.80;99.20;;;;;;5008326;28;20045;-85
2022/05/21 10:27:41;;;;;;;0.00;0.00;;;19.30;99.60;;;;;;5007489;28;20037;-85
2022/05/21 10:30:31;;;;;;;0.10;0.10;;;19.70;99.90;;;;;;5005879;28;20068;-89
2022/05/21 10:33:07;;;;;;;0.20;0.20;;;21.00;99.90;;;;;;5008004;28;20037;-89
2022/05/21 10:35:42;;;;;;;0.08;0.08;;;22.20;97.50;;;;;;5008414;28;20045;-89
2022/05/21 10:38:21;;;;;;;2.63;0.80;;;23.50;94.80;;;;;;5007707;28;20124;-90
2022/05/21 10:41:03;;;;;;;0.00;0.00;;;24.30;93.00;;;;;;4998173;28;20037;-89
2022/05/21 10:43:38;;;;;;;0.20;0.20;;;24.20;93.30;;;;;;5003562;28;20033;-88
2022/05/21 10:46:20;;;;;;;7.50;1.80;;;23.60;92.30;;;;;;5008022;28;20037;-82
2022/05/21 10:49:13;;;;;;;0.38;0.38;;;23.20;91.70;;;;;;4994735;28;20072;-83
2022/05/21 10:52:02;;;;;;;0.10;0.10;;;22.50;92.70;;;;;;5007020;28;20298;-82
2022/05/21 10:54:48;;;;;;;0.10;0.10;;;21.60;94.60;;;;;;5004234;28;20052;-88
2022/05/21 10:57:51;;;;;;;0.08;0.08;;;21.60;95.40;;;;;;5022437;28;20052;-88
2022/05/21 11:00:42;;;;;;;1.08;0.98;;;22.70;94.10;;;;;;5009143;28;20034;-88
2022/05/21 11:03:17;;;;;;;0.10;0.10;;;22.40;93.40;;;;;;5002097;28;20496;-87
2022/05/21 11:06:10;;;;;;;0.00;0.00;;;22.00;95.80;;;;;;4988340;28;20499;-87
2022/05/21 11:08:44;;;;;;;0.93;0.85;;;21.50;94.70;;;;;;5010183;28;20053;-88
2022/05/21 11:11:42;;;;;;;0.10;0.10;;;20.90;95.90;;;;;;4993853;28;20053;-87
2022/05/21 11:14:27;;;;;;;0.10;0.10;;;20.40;96.70;;;;;;5008424;28;20152;-88
2022/05/21 11:17:06;;;;;;;0.00;0.00;;;19.70;98.50;;;;;;4993389;28;20057;-88
2022/05/21 11:19:54;;;;;;;0.50;0.30;;;19.30;99.80;;;;;;5005407;28;20095;-88
2022/05/21 11:22:26;;;;;;;0.28;0.28;;;19.40;99.90;;;;;;5008648;28;20045;-87
2022/05/21 11:25:04;;;;;;;0.85;0.65;;;19.20;99.90;;;;;;5025338;28;20040;-87
2022/05/21 11:27:37;;;;;;;0.30;0.30;;;19.70;99.90;;;;;;5007068;28;20087;-89
2022/05/21 11:30:10;;;;;;;0.00;0.00;;;20.20;99.90;;;;;;4993267;28;20079;-88
2022/05/21 11:38:27;;;;;;;0.63;0.53;;;19.50;99.90;;;;;;5006634;28;20549;-82
2022/05/21 11:47:20;;;;;;;0.00;0.00;;;22.40;97.10;;;;;;5006551;28;20041;-82
2022/05/21 11:49:59;;;;;;;0.25;0.25;;;22.90;93.30;;;;;;5022699;28;20048;-82
2022/05/21 11:52:34;;;;;;;0.03;0.03;;;23.50;94.40;;;;;;4991030;28;20053;-82
2022/05/21 11:55:11;;;;;;;0.43;0.43;;;23.30;92.50;;;;;;5022629;28;20046;-82
2022/05/21 11:57:49;;;;;;;0.05;0.05;;;22.90;92.50;;;;;;5010971;28;20136;-82
2022/05/21 12:00:15;;;;;;;0.00;0.00;;;22.40;93.10;;;;;;5006732;28;20049;-82
2022/05/21 12:02:59;;;;;;;0.30;0.30;;;22.50;93.70;;;;;;5012593;28;20046;-82
2022/05/21 12:05:34;;;;;;;0.10;0.10;;;22.30;93.30;;;;;;5004521;28;20045;-82
2022/05/21 12:08:21;;;;;;;0.03;0.03;;;22.70;94.10;;;;;;5007738;28;20447;-82
2022/05/21 12:11:04;;;;;;;0.20;0.20;;;21.50;92.80;;;;;;5008051;28;20041;-85
2022/05/21 12:13:33;;;;;;;0.15;0.15;;;22.00;94.40;;;;;;4994822;28;20107;-85
2022/05/21 12:15:59;;;;;;;0.63;0.43;;;22.30;92.80;;;;;;5009824;28;20133;-84
2022/05/21 12:18:25;;;;;;;0.75;0.75;;;22.60;94.90;;;;;;5008566;28;20033;-85
2022/05/21 12:20:52;;;;;;;0.00;0.00;;;22.20;93.60;;;;;;5012195;28;20047;-85
2022/05/21 12:23:33;;;;;;;1.67;0.73;;;22.10;93.90;;;;;;4997511;28;20037;-85
2022/05/21 12:26:04;;;;;;;0.00;0.00;;;22.20;93.30;;;;;;5010933;28;20048;-85
2022/05/21 12:28:45;;;;;;;0.35;0.35;;;21.90;93.80;;;;;;4994699;28;20045;-85
2022/05/21 12:31:37;;;;;;;0.00;0.00;;;21.50;94.40;;;;;;4995213;28;20041;-85
2022/05/21 12:34:15;;;;;;;3.10;0.20;;;21.50;94.70;;;;;;5010925;28;20052;-85
2022/05/21 12:36:57;;;;;;;1.38;0.90;;;21.10;94.20;;;;;;5009763;28;20060;-85
2022/05/21 12:39:30;;;;;;;3.08;1.02;;;20.90;94.30;;;;;;5009558;28;20044;-85
2022/05/21 12:42:06;;;;;;;0.45;0.45;;;20.90;95.60;;;;;;5009792;28;20038;-90
2022/05/21 12:44:43;;;;;;;0.28;0.28;;;20.20;94.90;;;;;;5009989;28;20096;-88
2022/05/21 12:47:26;;;;;;;0.10;0.10;;;20.00;96.20;;;;;;5008744;28;20046;-89
2022/05/21 12:49:53;;;;;;;0.32;0.32;;;20.10;96.10;;;;;;5008720;28;20120;-89
2022/05/21 12:52:27;;;;;;;0.10;0.10;;;19.90;96.50;;;;;;5010111;28;20449;-89
2022/05/21 12:55:32;;;;;;;0.00;0.00;;;20.30;96.40;;;;;;5009429;28;20104;-90
2022/05/21 12:58:16;;;;;;;0.00;0.00;;;20.40;96.80;;;;;;4947010;29;20134;-90
2022/05/21 13:00:51;;;;;;;0.10;0.10;;;20.50;96.20;;;;;;4948465;29;20055;-83
2022/05/21 13:03:18;;;;;;;0.80;0.63;;;21.00;97.20;;;;;;4985052;28;20124;-84
2022/05/21 13:05:55;;;;;;;0.10;0.10;;;21.10;96.20;;;;;;4980763;28;20401;-84
2022/05/21 13:08:22;;;;;;;0.15;0.15;;;21.50;96.50;;;;;;4995647;28;20037;-84
2022/05/21 13:11:16;;;;;;;0.00;0.00;;;21.90;95.70;;;;;;5008433;28;20042;-84
2022/05/21 13:13:45;;;;;;;0.00;0.00;;;21.50;94.40;;;;;;5008388;28;20400;-84
2022/05/21 13:16:19;;;;;;;0.00;0.00;;;21.30;94.50;;;;;;5009409;28;20520;-90
2022/05/21 13:19:20;;;;;;;0.10;0.10;;;21.20;95.10;;;;;;5008157;28;20041;-94
2022/05/21 13:22:01;;;;;;;0.10;0.10;;;20.60;94.90;;;;;;4985636;28;20387;-88
2022/05/21 13:24:58;;;;;;;0.20;0.20;;;20.40;95.50;;;;;;5007124;28;20056;-89
2022/05/21 13:27:24;;;;;;;6.72;1.35;;;20.20;95.60;;;;;;5011437;28;20038;-88
2022/05/21 13:29:52;;;;;;;0.00;0.00;;;20.40;95.90;;;;;;4994584;28;20120;-89
2022/05/21 13:32:25;;;;;;;0.10;0.10;;;20.30;96.10;;;;;;5011295;28;20033;-94
2022/05/21 13:34:52;;;;;;;0.03;0.03;;;20.30;96.40;;;;;;5017119;28;20495;-94
2022/05/21 13:37:27;;;;;;;0.10;0.10;;;20.40;95.30;;;;;;5021167;28;20045;-93
2022/05/21 13:40:18;;;;;;;0.05;0.05;;;20.50;96.30;;;;;;5024901;28;20044;-94
2022/05/21 13:42:46;;;;;;;0.00;0.00;;;20.40;95.30;;;;;;5016011;28;20048;-93
2022/05/21 13:45:28;;;;;;;0.20;0.20;;;20.50;97.40;;;;;;5021794;28;20050;-92
2022/05/21 13:48:12;;;;;;;0.00;0.00;;;20.60;97.50;;;;;;5018120;28;20097;-95